createdAt,value
2023-02-09T00:01:41.351Z,91.50
2023-02-09T00:03:48.333Z,91.60
2023-02-09T00:05:55.572Z,91.60
2023-02-09T00:08:02.494Z,91.50
2023-02-09T00:10:09.980Z,91.30
2023-02-09T00:12:34.878Z,91.20
2023-02-09T00:14:42.213Z,91.00
2023-02-09T00:16:49.697Z,90.90
2023-02-09T00:18:58.280Z,90.60
2023-02-09T00:21:07.414Z,90.50
2023-02-09T00:23:14.474Z,90.30
2023-02-09T00:25:21.399Z,90.20
2023-02-09T00:27:30.248Z,90.10
2023-02-09T00:29:37.042Z,90.00
2023-02-09T00:31:44.454Z,89.90
2023-02-09T00:33:51.477Z,89.80
2023-02-09T00:35:58.672Z,89.60
2023-02-09T00:38:05.368Z,89.50
2023-02-09T00:40:13.563Z,89.20
2023-02-09T00:42:20.437Z,88.80
2023-02-09T00:44:29.308Z,88.60
2023-02-09T00:46:36.227Z,88.20
2023-02-09T00:48:43.416Z,88.00
2023-02-09T00:50:50.804Z,87.80
2023-02-09T00:52:58.684Z,87.50
2023-02-09T00:55:05.642Z,87.40
2023-02-09T00:57:13.114Z,87.20
2023-02-09T00:59:20.705Z,86.90
2023-02-09T01:01:29.668Z,86.70
2023-02-09T01:03:36.452Z,86.60
2023-02-09T01:05:43.923Z,86.40
2023-02-09T01:07:51.373Z,86.10
2023-02-09T01:10:01.078Z,85.90
2023-02-09T01:12:08.094Z,85.70
2023-02-09T01:14:16.179Z,85.50
2023-02-09T01:16:23.072Z,85.30
2023-02-09T01:18:31.807Z,85.00
2023-02-09T01:20:39.020Z,84.70
2023-02-09T01:22:46.561Z,84.40
2023-02-09T01:24:53.418Z,84.30
2023-02-09T01:27:00.616Z,84.10
2023-02-09T01:29:07.478Z,83.80
2023-02-09T01:31:24.725Z,83.60
2023-02-09T01:33:33.378Z,83.40
2023-02-09T01:35:40.503Z,83.20
2023-02-09T01:37:47.334Z,82.90
2023-02-09T01:39:54.613Z,82.70
2023-02-09T01:42:01.472Z,82.40
2023-02-09T01:44:10.674Z,82.20
2023-02-09T01:46:17.565Z,81.70
2023-02-09T01:48:28.514Z,81.70
2023-02-09T01:50:39.538Z,81.50
2023-02-09T01:52:48.201Z,81.00
2023-02-09T01:54:58.363Z,81.00
2023-02-09T01:57:10.199Z,80.60
2023-02-09T01:59:18.297Z,80.10
2023-02-09T02:01:27.399Z,79.90
2023-02-09T02:03:34.811Z,79.60
2023-02-09T02:05:46.703Z,79.20
2023-02-09T02:07:59.517Z,78.90
2023-02-09T02:10:07.115Z,78.60
2023-02-09T02:12:14.494Z,78.40
2023-02-09T02:14:34.967Z,78.10
2023-02-09T02:16:53.694Z,77.90
2023-02-09T02:19:35.886Z,77.40
2023-02-09T02:22:20.709Z,77.00
2023-02-09T02:24:59.267Z,76.80
2023-02-09T02:27:07.992Z,76.50
2023-02-09T02:29:43.749Z,76.20
2023-02-09T02:32:10.637Z,75.50
2023-02-09T02:34:23.906Z,74.70
2023-02-09T02:36:35.844Z,74.60
2023-02-09T02:38:47.071Z,73.50
2023-02-09T02:41:03.986Z,71.50
2023-02-09T02:43:19.815Z,72.20
2023-02-09T02:45:36.781Z,72.00
2023-02-09T02:47:49.542Z,70.00
2023-02-09T02:50:01.692Z,68.90
2023-02-09T02:52:11.604Z,69.40
2023-02-09T02:54:22.260Z,68.90
2023-02-09T02:56:33.410Z,69.10
2023-02-09T02:58:43.368Z,69.20
2023-02-09T03:00:56.780Z,68.70
2023-02-09T03:03:11.921Z,68.20
2023-02-09T03:05:20.275Z,68.20
2023-02-09T03:07:27.670Z,67.90
2023-02-09T03:09:34.491Z,67.30
2023-02-09T03:11:44.951Z,66.50
2023-02-09T03:14:13.232Z,65.10
2023-02-09T03:16:30.386Z,64.90
2023-02-09T03:18:45.610Z,64.20
2023-02-09T03:20:57.915Z,64.10
2023-02-09T03:23:07.487Z,64.40
2023-02-09T03:25:19.034Z,63.90
2023-02-09T03:27:28.268Z,63.90
2023-02-09T03:29:37.085Z,63.70
2023-02-09T03:31:45.122Z,63.50
2023-02-09T03:33:54.349Z,62.80
2023-02-09T03:36:03.492Z,62.90
2023-02-09T03:38:10.524Z,62.70
2023-02-09T03:40:17.598Z,62.50
2023-02-09T03:42:24.841Z,62.10
2023-02-09T03:44:30.426Z,62.20
2023-02-09T03:46:37.688Z,62.20
2023-02-09T03:48:44.588Z,62.20
2023-02-09T03:50:53.354Z,61.90
2023-02-09T03:53:00.391Z,61.80
2023-02-09T03:55:10.223Z,61.50
2023-02-09T03:57:17.113Z,60.80
2023-02-09T03:59:26.228Z,60.70
2023-02-09T04:01:34.334Z,60.20
2023-02-09T04:03:42.583Z,59.60
2023-02-09T04:05:49.408Z,58.90
2023-02-09T04:08:01.508Z,58.30
2023-02-09T04:10:09.453Z,58.40
2023-02-09T04:12:16.639Z,58.00
2023-02-09T04:14:23.672Z,57.00
2023-02-09T04:16:31.163Z,57.30
2023-02-09T04:18:37.984Z,57.30
2023-02-09T04:20:45.370Z,56.80
2023-02-09T04:22:52.550Z,57.30
2023-02-09T04:25:01.476Z,57.30
2023-02-09T04:27:08.456Z,57.00
2023-02-09T04:29:15.574Z,56.70
2023-02-09T04:31:22.725Z,56.70
2023-02-09T04:33:29.989Z,56.10
2023-02-09T04:35:37.287Z,55.90
2023-02-09T04:37:44.615Z,55.80
2023-02-09T04:39:51.537Z,55.80
2023-02-09T04:42:00.565Z,55.10
2023-02-09T04:44:07.442Z,55.00
2023-02-09T04:46:16.920Z,54.80
2023-02-09T04:48:28.196Z,54.70
2023-02-09T04:50:37.017Z,54.80
2023-02-09T04:52:43.840Z,53.90
2023-02-09T04:54:51.028Z,55.00
2023-02-09T04:57:12.548Z,54.50
2023-02-09T04:59:35.193Z,53.70
2023-02-09T05:01:42.013Z,52.30
2023-02-09T05:03:49.153Z,53.50
2023-02-09T05:05:58.577Z,53.70
2023-02-09T05:08:05.857Z,53.60
2023-02-09T05:10:13.243Z,53.30
2023-02-09T05:12:22.011Z,53.00
2023-02-09T05:14:29.099Z,53.10
2023-02-09T05:16:38.262Z,53.10
2023-02-09T05:18:46.687Z,52.50
2023-02-09T05:20:53.914Z,52.50
2023-02-09T05:23:03.552Z,52.50
2023-02-09T05:25:10.690Z,52.90
2023-02-09T05:27:17.609Z,52.70
2023-02-09T05:29:26.689Z,52.60
2023-02-09T05:31:33.584Z,52.70
2023-02-09T05:33:41.614Z,52.90
2023-02-09T05:35:48.383Z,53.00
2023-02-09T05:37:58.882Z,52.80
2023-02-09T05:40:05.854Z,53.00
2023-02-09T05:42:17.204Z,52.30
2023-02-09T05:44:25.774Z,52.50
2023-02-09T05:46:33.010Z,52.60
2023-02-09T05:48:40.951Z,52.50
2023-02-09T05:50:48.224Z,52.30
2023-02-09T05:52:55.718Z,52.00
2023-02-09T05:55:02.845Z,51.80
2023-02-09T05:57:09.824Z,51.90
2023-02-09T05:59:17.106Z,52.10
2023-02-09T06:01:25.756Z,52.40
2023-02-09T06:03:32.940Z,52.80
2023-02-09T06:05:39.775Z,53.30
2023-02-09T06:07:46.812Z,53.10
2023-02-09T06:09:53.728Z,53.00
2023-02-09T06:12:00.806Z,52.50
2023-02-09T06:14:07.685Z,52.10
2023-02-09T06:16:15.081Z,51.80
2023-02-09T06:18:23.580Z,51.70
2023-02-09T06:20:30.723Z,51.60
2023-02-09T06:22:37.747Z,51.30
2023-02-09T06:24:44.876Z,50.90
2023-02-09T06:26:51.641Z,50.70
2023-02-09T06:28:58.754Z,50.60
2023-02-09T06:31:05.650Z,50.40
2023-02-09T06:33:12.981Z,50.40
2023-02-09T06:35:21.905Z,50.70
2023-02-09T06:37:29.095Z,50.80
2023-02-09T06:39:36.425Z,50.70
2023-02-09T06:41:43.307Z,50.50
2023-02-09T06:43:50.482Z,50.40
2023-02-09T06:45:57.780Z,50.60
2023-02-09T06:48:04.674Z,49.70
2023-02-09T06:50:12.392Z,49.80
2023-02-09T06:52:21.241Z,49.80
2023-02-09T06:54:29.459Z,49.90
2023-02-09T06:56:38.333Z,50.00
2023-02-09T06:58:46.827Z,50.30
2023-02-09T07:00:54.289Z,50.10
2023-02-09T07:03:02.065Z,49.80
2023-02-09T07:05:12.499Z,50.10
2023-02-09T07:07:21.306Z,50.30
2023-02-09T07:09:29.159Z,50.00
2023-02-09T07:11:36.845Z,50.00
2023-02-09T07:13:43.734Z,49.70
2023-02-09T07:15:59.046Z,49.60
2023-02-09T07:18:05.917Z,49.70
2023-02-09T07:20:14.633Z,50.30
2023-02-09T07:22:23.763Z,50.10
2023-02-09T07:24:30.993Z,49.80
2023-02-09T07:26:37.769Z,50.00
2023-02-09T07:28:44.946Z,50.10
2023-02-09T07:30:53.118Z,50.10
2023-02-09T07:33:00.336Z,50.10
2023-02-09T07:35:07.164Z,50.20
2023-02-09T07:37:14.594Z,50.20
2023-02-09T07:39:23.318Z,50.50
2023-02-09T07:41:30.645Z,50.70
2023-02-09T07:43:38.034Z,51.30
2023-02-09T07:45:45.699Z,51.40
2023-02-09T07:47:52.710Z,51.20
2023-02-09T07:49:59.934Z,51.10
2023-02-09T07:54:34.269Z,50.80
2023-02-09T07:56:41.087Z,50.50
2023-02-09T07:58:48.219Z,50.60
2023-02-09T08:00:55.350Z,50.30
2023-02-09T08:03:03.965Z,50.10
2023-02-09T08:05:16.834Z,50.10
2023-02-09T08:07:24.017Z,50.00
2023-02-09T08:09:32.572Z,49.40
2023-02-09T08:11:45.790Z,49.30
2023-02-09T08:13:54.420Z,49.50
2023-02-09T08:16:05.877Z,49.50
2023-02-09T08:18:16.354Z,49.30
2023-02-09T08:20:27.791Z,49.20
2023-02-09T08:22:38.398Z,49.00
2023-02-09T08:24:47.322Z,49.30
2023-02-09T08:26:54.197Z,49.30
2023-02-09T08:29:01.582Z,49.20
2023-02-09T08:31:08.971Z,49.30
2023-02-09T08:33:15.996Z,49.10
2023-02-09T08:35:23.424Z,48.40
2023-02-09T08:37:30.193Z,48.20
2023-02-09T08:39:37.665Z,48.50
2023-02-09T08:41:46.540Z,48.80
2023-02-09T08:43:54.370Z,48.60
2023-02-09T08:46:06.378Z,48.60
2023-02-09T08:48:14.104Z,48.60
2023-02-09T08:50:21.031Z,48.60
2023-02-09T08:52:28.220Z,48.50
2023-02-09T08:54:34.985Z,48.80
2023-02-09T08:56:43.804Z,49.00
2023-02-09T08:58:52.938Z,49.30
2023-02-09T09:01:01.092Z,49.30
2023-02-09T09:03:09.291Z,49.50
2023-02-09T09:05:16.555Z,49.90
2023-02-09T09:07:23.450Z,50.10
2023-02-09T09:09:30.616Z,50.20
2023-02-09T09:11:37.508Z,50.20
2023-02-09T09:13:44.851Z,50.10
2023-02-09T09:15:53.559Z,50.10
2023-02-09T09:18:00.709Z,50.30
2023-02-09T09:20:08.034Z,50.40
2023-02-09T09:22:15.461Z,50.00
2023-02-09T09:24:22.296Z,50.00
2023-02-09T09:26:29.422Z,50.20
2023-02-09T09:28:36.297Z,50.30
2023-02-09T09:30:43.627Z,50.40
2023-02-09T09:32:53.088Z,50.50
2023-02-09T09:35:01.932Z,50.40
2023-02-09T09:37:08.845Z,50.40
2023-02-09T09:39:16.041Z,50.60
2023-02-09T09:41:27.419Z,50.80
2023-02-09T09:43:36.084Z,51.00
2023-02-09T09:45:43.859Z,50.80
2023-02-09T09:47:54.186Z,51.30
2023-02-09T09:50:01.011Z,51.40
2023-02-09T09:52:12.187Z,51.30
2023-02-09T09:54:25.066Z,51.60
2023-02-09T09:56:34.228Z,51.50
2023-02-09T09:58:45.736Z,51.60
2023-02-09T10:00:53.448Z,51.30
2023-02-09T10:03:02.231Z,51.30
2023-02-09T10:05:19.621Z,51.40
2023-02-09T10:07:34.800Z,51.30
2023-02-09T10:09:45.428Z,51.30
2023-02-09T10:11:57.931Z,51.50
2023-02-09T10:14:05.120Z,51.70
2023-02-09T10:16:20.631Z,52.10
2023-02-09T10:18:31.213Z,52.50
2023-02-09T10:20:50.833Z,52.70
2023-02-09T10:22:58.005Z,52.90
2023-02-09T10:25:06.365Z,53.20
2023-02-09T10:27:17.796Z,53.50
2023-02-09T10:29:27.791Z,53.70
2023-02-09T10:31:38.439Z,53.90
2023-02-09T10:34:00.541Z,54.10
2023-02-09T10:36:10.895Z,54.40
2023-02-09T10:38:21.047Z,54.70
2023-02-09T10:40:31.439Z,54.90
2023-02-09T10:42:43.105Z,55.10
2023-02-09T10:44:52.929Z,55.20
2023-02-09T10:47:14.650Z,55.60
2023-02-09T10:49:36.390Z,56.20
2023-02-09T10:51:43.195Z,56.40
2023-02-09T10:54:04.102Z,56.70
2023-02-09T10:56:18.805Z,57.20
2023-02-09T10:58:29.525Z,57.60
2023-02-09T11:00:41.788Z,57.90
2023-02-09T11:02:54.299Z,58.30
2023-02-09T11:05:03.259Z,58.70
2023-02-09T11:07:15.770Z,59.30
2023-02-09T11:09:28.220Z,59.60
2023-02-09T11:11:37.243Z,59.90
2023-02-09T11:13:45.044Z,60.30
2023-02-09T11:16:09.608Z,61.10
2023-02-09T11:18:22.287Z,61.50
2023-02-09T11:20:34.719Z,61.60
2023-02-09T11:23:10.084Z,61.80
2023-02-09T11:25:25.008Z,61.80
2023-02-09T11:27:57.889Z,61.90
2023-02-09T11:30:19.814Z,62.40
2023-02-09T11:32:33.596Z,62.50
2023-02-09T11:35:03.560Z,62.60
2023-02-09T11:37:27.230Z,63.70
2023-02-09T11:39:46.403Z,63.90
2023-02-09T11:42:15.239Z,64.10
2023-02-09T11:44:29.840Z,64.20
2023-02-09T11:46:39.524Z,64.50
2023-02-09T11:48:50.300Z,64.70
2023-02-09T11:51:04.960Z,65.20
2023-02-09T11:53:23.908Z,66.20
2023-02-09T11:55:34.930Z,66.40
2023-02-09T11:57:46.313Z,66.20
2023-02-09T12:00:00.545Z,65.60
2023-02-09T12:02:23.869Z,65.30
2023-02-09T12:04:35.514Z,65.10
2023-02-09T12:06:55.350Z,65.10
2023-02-09T12:09:34.155Z,65.50
2023-02-09T12:11:48.562Z,66.50
2023-02-09T12:14:16.064Z,67.00
2023-02-09T12:16:26.121Z,67.70
2023-02-09T12:18:47.739Z,67.70
2023-02-09T12:20:56.974Z,68.20
2023-02-09T12:23:08.904Z,68.50
2023-02-09T12:25:24.846Z,68.60
2023-02-09T12:27:32.227Z,70.10
2023-02-09T12:29:41.389Z,69.20
2023-02-09T12:32:25.626Z,69.10
2023-02-09T12:34:40.975Z,69.70
2023-02-09T12:37:29.158Z,69.30
2023-02-09T12:39:37.885Z,69.70
2023-02-09T12:42:20.841Z,69.40
2023-02-09T12:44:56.938Z,70.40
2023-02-09T12:47:04.027Z,70.90
2023-02-09T12:49:22.182Z,70.40
2023-02-09T12:51:50.608Z,70.90
2023-02-09T12:53:57.696Z,71.10
2023-02-09T12:56:06.981Z,70.70
2023-02-09T12:58:37.755Z,70.90
2023-02-09T13:00:57.751Z,71.30
2023-02-09T13:03:17.978Z,71.20
2023-02-09T13:05:29.303Z,71.50
2023-02-09T13:07:47.607Z,71.90
2023-02-09T13:09:57.710Z,72.00
2023-02-09T13:12:09.187Z,71.70
2023-02-09T13:14:17.801Z,71.80
2023-02-09T13:17:06.774Z,73.10
2023-02-09T13:19:33.802Z,72.80
2023-02-09T13:22:02.140Z,72.60
2023-02-09T13:24:16.136Z,72.20
2023-02-09T13:26:26.281Z,71.80
2023-02-09T13:28:33.301Z,71.60
2023-02-09T13:30:40.593Z,71.50
2023-02-09T13:33:02.846Z,71.50
2023-02-09T13:35:22.300Z,72.00
2023-02-09T13:37:37.008Z,72.60
2023-02-09T13:39:45.344Z,72.60
2023-02-09T13:41:54.580Z,72.90
2023-02-09T13:44:01.883Z,72.90
2023-02-09T13:46:09.348Z,72.80
2023-02-09T13:48:25.769Z,72.70
2023-02-09T13:50:34.430Z,73.00
2023-02-09T13:52:43.004Z,73.20
2023-02-09T13:54:50.030Z,73.40
2023-02-09T13:56:57.263Z,73.60
2023-02-09T13:59:05.126Z,73.90
2023-02-09T14:01:19.934Z,74.30
2023-02-09T14:03:32.832Z,74.70
2023-02-09T14:05:45.105Z,75.00
2023-02-09T14:07:52.447Z,75.00
2023-02-09T14:10:04.727Z,75.00
2023-02-09T14:12:18.197Z,75.00
2023-02-09T14:16:53.727Z,75.00
2023-02-09T14:19:04.108Z,75.00
2023-02-09T14:21:29.142Z,74.90
2023-02-09T14:23:36.341Z,75.20
2023-02-09T14:25:43.320Z,75.00
2023-02-09T14:27:51.417Z,75.10
2023-02-09T14:29:58.862Z,75.20
2023-02-09T14:32:32.679Z,75.40
2023-02-09T14:34:43.888Z,75.40
2023-02-09T14:36:55.472Z,75.50
2023-02-09T14:39:14.993Z,75.40
2023-02-09T14:41:32.264Z,75.40
2023-02-09T14:43:39.392Z,75.40
2023-02-09T14:45:48.054Z,75.40
2023-02-09T14:47:55.956Z,75.40
2023-02-09T14:50:04.775Z,75.40
2023-02-09T14:52:16.468Z,75.70
2023-02-09T14:54:28.628Z,75.80
2023-02-09T14:56:36.467Z,75.60
2023-02-09T14:58:43.386Z,75.60
2023-02-09T15:00:50.773Z,75.80
2023-02-09T15:03:00.229Z,76.00
2023-02-09T15:05:09.552Z,76.40
2023-02-09T15:07:21.467Z,76.60
2023-02-09T15:09:33.843Z,76.90
2023-02-09T15:11:57.504Z,76.60
2023-02-09T15:14:07.454Z,76.90
2023-02-09T15:16:14.706Z,77.60
2023-02-09T15:18:23.204Z,77.80
2023-02-09T15:20:32.374Z,77.90
2023-02-09T15:22:39.079Z,78.20
2023-02-09T15:24:47.153Z,79.10
2023-02-09T15:26:53.925Z,79.30
2023-02-09T15:29:01.575Z,79.40
2023-02-09T15:31:09.812Z,79.20
2023-02-09T15:33:16.791Z,79.40
2023-02-09T15:35:25.157Z,79.60
2023-02-09T15:37:38.948Z,79.50
2023-02-09T15:39:45.799Z,80.20
2023-02-09T15:42:09.740Z,80.40
2023-02-09T15:44:37.296Z,80.70
2023-02-09T15:47:03.147Z,80.90
2023-02-09T15:49:11.424Z,80.60
2023-02-09T15:51:19.064Z,81.10
2023-02-09T15:53:31.936Z,81.80
2023-02-09T15:55:40.029Z,81.90
2023-02-09T15:57:50.594Z,81.90
2023-02-09T15:59:57.727Z,82.30
2023-02-09T16:02:04.554Z,82.30
2023-02-09T16:04:15.184Z,83.00
2023-02-09T16:06:25.720Z,82.50
2023-02-09T16:08:39.388Z,82.10
2023-02-09T16:10:47.897Z,82.20
2023-02-09T16:12:55.608Z,81.90
2023-02-09T16:15:02.489Z,82.40
2023-02-09T16:17:09.882Z,83.00
2023-02-09T16:19:17.855Z,82.80
2023-02-09T16:21:28.882Z,82.80
2023-02-09T16:23:38.481Z,83.30
2023-02-09T16:28:06.741Z,84.50
2023-02-09T16:30:20.158Z,84.20
2023-02-09T16:32:27.847Z,83.80
2023-02-09T16:34:35.181Z,83.70
2023-02-09T16:36:42.495Z,83.60
2023-02-09T16:38:51.336Z,83.70
2023-02-09T16:40:59.029Z,83.60
2023-02-09T16:43:06.246Z,83.70
2023-02-09T16:45:16.313Z,84.00
2023-02-09T16:47:27.029Z,84.10
2023-02-09T16:49:39.511Z,84.10
2023-02-09T16:51:46.824Z,84.10
2023-02-09T16:53:56.303Z,83.90
2023-02-09T16:56:06.400Z,83.90
2023-02-09T16:58:17.183Z,83.90
2023-02-09T17:00:25.585Z,84.00
2023-02-09T17:02:44.901Z,84.10
2023-02-09T17:04:52.536Z,84.10
2023-02-09T17:06:59.611Z,83.90
2023-02-09T17:09:12.532Z,83.90
2023-02-09T17:11:21.504Z,83.90
2023-02-09T17:13:28.795Z,84.10
2023-02-09T17:15:42.636Z,84.20
2023-02-09T17:17:52.983Z,84.10
2023-02-09T17:20:00.424Z,84.30
2023-02-09T17:22:14.584Z,84.20
2023-02-09T17:24:23.491Z,84.20
2023-02-09T17:26:31.077Z,84.20
2023-02-09T17:28:37.975Z,84.20
2023-02-09T17:30:46.261Z,84.20
2023-02-09T17:33:02.617Z,84.10
2023-02-09T17:35:48.847Z,84.20
2023-02-09T17:37:53.534Z,84.10
2023-02-09T17:40:07.530Z,84.00
2023-02-09T17:42:29.753Z,83.90
2023-02-09T17:44:46.148Z,84.00
2023-02-09T17:46:54.055Z,83.90
2023-02-09T17:49:03.894Z,83.80
2023-02-09T17:51:22.749Z,83.60
2023-02-09T17:53:34.697Z,83.60
2023-02-09T17:55:43.698Z,83.50
2023-02-09T17:57:50.540Z,83.70
2023-02-09T17:59:58.399Z,83.80
2023-02-09T18:02:05.481Z,83.70
2023-02-09T18:04:20.993Z,83.90
2023-02-09T18:06:39.255Z,84.00
2023-02-09T18:08:46.981Z,84.00
2023-02-09T18:10:56.264Z,84.00
2023-02-09T18:13:03.339Z,83.60
2023-02-09T18:15:10.982Z,83.20
2023-02-09T18:17:18.114Z,82.90
2023-02-09T18:19:25.244Z,83.00
2023-02-09T18:21:32.630Z,83.00
2023-02-09T18:23:40.664Z,83.00
2023-02-09T18:25:50.479Z,83.10
2023-02-09T18:27:59.121Z,83.00
2023-02-09T18:30:06.580Z,83.10
2023-02-09T18:32:16.021Z,83.60
2023-02-09T18:34:24.420Z,84.00
2023-02-09T18:36:31.347Z,83.70
2023-02-09T18:38:39.352Z,83.70
2023-02-09T18:40:46.791Z,84.00
2023-02-09T18:42:54.119Z,84.40
2023-02-09T18:45:02.852Z,84.20
2023-02-09T18:47:10.120Z,84.00
2023-02-09T18:49:17.043Z,84.40
2023-02-09T18:51:24.590Z,84.60
2023-02-09T18:53:31.392Z,84.40
2023-02-09T18:55:38.643Z,84.40
2023-02-09T18:57:45.526Z,84.50
2023-02-09T18:59:52.695Z,84.60
2023-02-09T19:02:01.802Z,84.50
2023-02-09T19:04:09.528Z,84.90
2023-02-09T19:06:16.634Z,84.90
2023-02-09T19:08:23.883Z,84.90
2023-02-09T19:10:34.023Z,84.80
2023-02-09T19:12:41.321Z,84.90
2023-02-09T19:14:49.677Z,84.80
2023-02-09T19:16:57.323Z,84.80
2023-02-09T19:19:06.209Z,85.40
2023-02-09T19:21:13.634Z,85.40
2023-02-09T19:23:20.740Z,85.50
2023-02-09T19:25:30.392Z,85.30
2023-02-09T19:27:37.278Z,85.10
2023-02-09T19:29:44.773Z,85.60
2023-02-09T19:31:51.547Z,86.00
2023-02-09T19:33:59.332Z,86.90
2023-02-09T19:36:08.313Z,87.10
2023-02-09T19:38:15.488Z,87.40
2023-02-09T19:40:29.184Z,87.30
2023-02-09T19:42:36.507Z,86.90
2023-02-09T19:44:43.851Z,86.80
2023-02-09T19:46:51.495Z,86.80
2023-02-09T19:48:58.624Z,87.00
2023-02-09T19:51:07.833Z,87.50
2023-02-09T19:53:14.617Z,87.70
2023-02-09T19:55:21.953Z,87.90
2023-02-09T19:57:28.774Z,88.20
2023-02-09T19:59:36.109Z,88.30
2023-02-09T20:01:43.013Z,88.50
2023-02-09T20:03:50.834Z,89.00
2023-02-09T20:05:57.662Z,89.50
2023-02-09T20:08:06.536Z,90.10
2023-02-09T20:10:14.014Z,89.70
2023-02-09T20:12:22.580Z,89.30
2023-02-09T20:14:31.762Z,89.50
2023-02-09T20:16:40.695Z,89.60
2023-02-09T20:18:49.755Z,89.90
2023-02-09T20:20:56.526Z,90.00
2023-02-09T20:23:06.165Z,90.00
2023-02-09T20:25:13.203Z,89.80
2023-02-09T20:27:21.587Z,90.10
2023-02-09T20:29:28.429Z,90.00
2023-02-09T20:31:37.824Z,90.60
2023-02-09T20:33:44.787Z,91.10
2023-02-09T20:35:51.712Z,90.90
2023-02-09T20:37:58.944Z,90.80
2023-02-09T20:40:11.616Z,90.70
2023-02-09T20:42:35.016Z,90.60
2023-02-09T20:44:58.949Z,91.00
2023-02-09T20:47:05.867Z,91.50
2023-02-09T20:49:14.634Z,91.30
2023-02-09T20:51:21.650Z,91.00
2023-02-09T20:53:28.544Z,90.80
2023-02-09T20:55:37.314Z,90.80
2023-02-09T20:57:44.494Z,90.50
2023-02-09T20:59:51.626Z,90.30
2023-02-09T21:01:58.549Z,90.10
2023-02-09T21:04:07.489Z,90.30
2023-02-09T21:06:17.771Z,90.40
2023-02-09T21:08:25.216Z,90.10
2023-02-09T21:10:36.337Z,90.30
2023-02-09T21:12:45.103Z,90.50
2023-02-09T21:14:52.422Z,90.70
2023-02-09T21:16:59.210Z,90.40
2023-02-09T21:19:06.244Z,90.60
2023-02-09T21:21:16.493Z,90.60
2023-02-09T21:23:23.672Z,90.50
2023-02-09T21:25:30.549Z,90.60
2023-02-09T21:27:37.675Z,90.90
2023-02-09T21:29:46.368Z,91.80
2023-02-09T21:31:53.884Z,92.00
2023-02-09T21:34:00.706Z,92.10
2023-02-09T21:36:08.760Z,91.90
2023-02-09T21:38:15.997Z,91.50
2023-02-09T21:40:24.078Z,91.10
2023-02-09T21:42:31.636Z,91.10
2023-02-09T21:44:39.982Z,90.90
2023-02-09T21:46:48.979Z,91.00
2023-02-09T21:48:56.562Z,91.30
2023-02-09T21:51:05.017Z,91.80
2023-02-09T21:53:11.845Z,92.40
2023-02-09T21:55:19.071Z,92.90
2023-02-09T21:57:27.020Z,93.50
2023-02-09T21:59:34.200Z,93.90
2023-02-09T22:01:42.886Z,93.50
2023-02-09T22:03:58.114Z,93.20
2023-02-09T22:06:05.694Z,93.10
2023-02-09T22:08:12.869Z,93.00
2023-02-09T22:10:20.757Z,92.90
2023-02-09T22:12:27.886Z,92.80
2023-02-09T22:14:34.766Z,93.00
2023-02-09T22:16:41.918Z,93.10
2023-02-09T22:18:48.996Z,92.80
2023-02-09T22:20:57.793Z,93.00
2023-02-09T22:23:05.176Z,93.10
2023-02-09T22:25:12.411Z,93.50
2023-02-09T22:27:19.234Z,93.80
2023-02-09T22:29:26.362Z,93.90
2023-02-09T22:31:33.250Z,93.70
2023-02-09T22:33:40.597Z,93.50
2023-02-09T22:35:47.620Z,93.30
2023-02-09T22:37:56.626Z,93.00
2023-02-09T22:40:03.498Z,92.90
2023-02-09T22:42:10.577Z,92.80
2023-02-09T22:44:18.939Z,92.60
2023-02-09T22:46:28.269Z,92.30
2023-02-09T22:48:35.141Z,92.40
2023-02-09T22:50:42.174Z,92.20
2023-02-09T22:52:48.985Z,92.00
2023-02-09T22:54:58.896Z,91.60
2023-02-09T22:57:05.825Z,91.60
2023-02-09T22:59:15.168Z,91.60
2023-02-09T23:01:22.453Z,91.50
2023-02-09T23:03:29.268Z,91.60
2023-02-09T23:05:37.218Z,91.60
2023-02-09T23:07:46.193Z,91.70
2023-02-09T23:09:53.015Z,91.70
2023-02-09T23:12:01.849Z,91.50
2023-02-09T23:14:10.695Z,91.50
2023-02-09T23:16:20.112Z,91.60
2023-02-09T23:18:27.119Z,91.90
2023-02-09T23:20:34.256Z,92.20
2023-02-09T23:22:41.383Z,92.00
2023-02-09T23:24:48.458Z,91.80
2023-02-09T23:26:55.808Z,92.00
2023-02-09T23:29:11.385Z,91.90
2023-02-09T23:31:19.545Z,91.90
2023-02-09T23:33:26.984Z,91.90
2023-02-09T23:35:33.884Z,91.90
2023-02-09T23:37:40.812Z,91.50
2023-02-09T23:39:48.043Z,91.40
2023-02-09T23:41:55.194Z,91.60
2023-02-09T23:44:04.045Z,92.10
2023-02-09T23:46:13.303Z,92.50
2023-02-09T23:48:20.574Z,92.60
2023-02-09T23:50:27.539Z,92.60
2023-02-09T23:52:34.667Z,92.50
2023-02-09T23:54:41.493Z,92.50
2023-02-09T23:56:48.570Z,92.40
2023-02-09T23:58:56.424Z,92.30
